sensor_id;sensor_type;location;lat;lon;timestamp;P1;durP1;ratioP1;P2;durP2;ratioP2
24751;SDS011;27246;52.376;4.628;2022-12-20T00:04:04;5.43;;;3.97;;
24751;SDS011;27246;52.376;4.628;2022-12-20T00:09:06;5.68;;;3.88;;
24751;SDS011;27246;52.376;4.628;2022-12-20T00:14:09;5.03;;;4.18;;
24751;SDS011;27246;52.376;4.628;2022-12-20T00:19:11;5.25;;;3.00;;
24751;SDS011;27246;52.376;4.628;2022-12-20T00:24:12;6.72;;;4.35;;
24751;SDS011;27246;52.376;4.628;2022-12-20T00:29:14;7.18;;;4.28;;
24751;SDS011;27246;52.376;4.628;2022-12-20T00:34:16;4.15;;;3.50;;
24751;SDS011;27246;52.376;4.628;2022-12-20T00:39:17;6.90;;;4.03;;
24751;SDS011;27246;52.376;4.628;2022-12-20T00:44:19;5.45;;;3.67;;
24751;SDS011;27246;52.376;4.628;2022-12-20T00:49:21;7.03;;;4.03;;
24751;SDS011;27246;52.376;4.628;2022-12-20T00:54:23;4.25;;;3.65;;
24751;SDS011;27246;52.376;4.628;2022-12-20T00:59:24;5.03;;;3.50;;
24751;SDS011;27246;52.376;4.628;2022-12-20T01:04:27;4.78;;;3.67;;
24751;SDS011;27246;52.376;4.628;2022-12-20T01:09:28;6.80;;;3.67;;
24751;SDS011;27246;52.376;4.628;2022-12-20T01:14:30;6.57;;;3.65;;
24751;SDS011;27246;52.376;4.628;2022-12-20T01:19:32;5.75;;;3.75;;
24751;SDS011;27246;52.376;4.628;2022-12-20T01:24:34;4.68;;;3.83;;
24751;SDS011;27246;52.376;4.628;2022-12-20T01:29:35;7.82;;;3.83;;
24751;SDS011;27246;52.376;4.628;2022-12-20T01:34:37;7.47;;;4.05;;
24751;SDS011;27246;52.376;4.628;2022-12-20T01:39:39;4.57;;;3.47;;
24751;SDS011;27246;52.376;4.628;2022-12-20T01:49:43;4.68;;;3.38;;
24751;SDS011;27246;52.376;4.628;2022-12-20T01:54:48;5.22;;;3.95;;
24751;SDS011;27246;52.376;4.628;2022-12-20T01:59:53;5.90;;;3.58;;
24751;SDS011;27246;52.376;4.628;2022-12-20T02:04:57;6.40;;;4.07;;
24751;SDS011;27246;52.376;4.628;2022-12-20T02:09:58;4.60;;;3.58;;
24751;SDS011;27246;52.376;4.628;2022-12-20T02:31:13;4.20;;;3.60;;
24751;SDS011;27246;52.376;4.628;2022-12-20T02:36:19;5.32;;;3.60;;
24751;SDS011;27246;52.376;4.628;2022-12-20T02:41:35;7.38;;;4.20;;
24751;SDS011;27246;52.376;4.628;2022-12-20T02:46:40;9.63;;;4.50;;
24751;SDS011;27246;52.376;4.628;2022-12-20T02:51:43;6.80;;;4.03;;
24751;SDS011;27246;52.376;4.628;2022-12-20T02:56:49;6.18;;;4.00;;
24751;SDS011;27246;52.376;4.628;2022-12-20T03:01:57;7.82;;;4.63;;
24751;SDS011;27246;52.376;4.628;2022-12-20T03:07:07;5.53;;;4.13;;
24751;SDS011;27246;52.376;4.628;2022-12-20T03:12:11;6.13;;;4.45;;
24751;SDS011;27246;52.376;4.628;2022-12-20T03:17:16;6.35;;;4.03;;
24751;SDS011;27246;52.376;4.628;2022-12-20T03:22:18;7.00;;;4.15;;
24751;SDS011;27246;52.376;4.628;2022-12-20T03:27:19;5.43;;;3.85;;
24751;SDS011;27246;52.376;4.628;2022-12-20T03:32:21;7.22;;;3.97;;
24751;SDS011;27246;52.376;4.628;2022-12-20T03:37:23;6.63;;;4.50;;
24751;SDS011;27246;52.376;4.628;2022-12-20T03:42:26;5.93;;;4.57;;
24751;SDS011;27246;52.376;4.628;2022-12-20T03:47:27;5.22;;;3.75;;
24751;SDS011;27246;52.376;4.628;2022-12-20T03:52:29;5.70;;;4.43;;
24751;SDS011;27246;52.376;4.628;2022-12-20T03:57:31;6.95;;;4.03;;
24751;SDS011;27246;52.376;4.628;2022-12-20T04:02:33;6.30;;;3.63;;
24751;SDS011;27246;52.376;4.628;2022-12-20T04:07:35;4.50;;;3.67;;
24751;SDS011;27246;52.376;4.628;2022-12-20T04:12:37;4.72;;;3.78;;
24751;SDS011;27246;52.376;4.628;2022-12-20T04:17:42;4.78;;;3.40;;
24751;SDS011;27246;52.376;4.628;2022-12-20T04:22:45;4.25;;;3.50;;
24751;SDS011;27246;52.376;4.628;2022-12-20T04:27:48;6.57;;;3.92;;
24751;SDS011;27246;52.376;4.628;2022-12-20T04:32:50;4.28;;;3.00;;
24751;SDS011;27246;52.376;4.628;2022-12-20T04:37:55;5.60;;;3.38;;
24751;SDS011;27246;52.376;4.628;2022-12-20T04:42:57;4.60;;;3.28;;
24751;SDS011;27246;52.376;4.628;2022-12-20T04:47:59;7.40;;;4.32;;
24751;SDS011;27246;52.376;4.628;2022-12-20T04:53:21;4.18;;;3.47;;
24751;SDS011;27246;52.376;4.628;2022-12-20T04:58:44;4.68;;;3.30;;
24751;SDS011;27246;52.376;4.628;2022-12-20T05:03:46;4.10;;;3.70;;
24751;SDS011;27246;52.376;4.628;2022-12-20T05:08:50;4.07;;;3.33;;
24751;SDS011;27246;52.376;4.628;2022-12-20T05:13:52;4.57;;;3.50;;
24751;SDS011;27246;52.376;4.628;2022-12-20T05:18:55;5.38;;;4.88;;
24751;SDS011;27246;52.376;4.628;2022-12-20T05:23:57;4.95;;;3.72;;
24751;SDS011;27246;52.376;4.628;2022-12-20T05:29:43;5.80;;;4.40;;
24751;SDS011;27246;52.376;4.628;2022-12-20T05:34:45;6.00;;;4.05;;
24751;SDS011;27246;52.376;4.628;2022-12-20T05:39:48;5.05;;;3.22;;
24751;SDS011;27246;52.376;4.628;2022-12-20T05:44:54;7.38;;;3.65;;
24751;SDS011;27246;52.376;4.628;2022-12-20T05:49:56;6.60;;;4.30;;
24751;SDS011;27246;52.376;4.628;2022-12-20T05:54:58;4.50;;;4.10;;
24751;SDS011;27246;52.376;4.628;2022-12-20T06:00:01;8.45;;;3.88;;
24751;SDS011;27246;52.376;4.628;2022-12-20T06:05:53;4.68;;;3.75;;
24751;SDS011;27246;52.376;4.628;2022-12-20T06:11:00;4.72;;;3.58;;
24751;SDS011;27246;52.376;4.628;2022-12-20T06:16:09;4.57;;;3.50;;
24751;SDS011;27246;52.376;4.628;2022-12-20T06:21:12;3.40;;;3.10;;
24751;SDS011;27246;52.376;4.628;2022-12-20T06:26:13;4.72;;;3.10;;
24751;SDS011;27246;52.376;4.628;2022-12-20T06:31:22;3.72;;;3.30;;
24751;SDS011;27246;52.376;4.628;2022-12-20T06:36:27;6.40;;;3.70;;
24751;SDS011;27246;52.376;4.628;2022-12-20T06:41:29;6.07;;;3.20;;
24751;SDS011;27246;52.376;4.628;2022-12-20T06:46:31;8.43;;;4.53;;
24751;SDS011;27246;52.376;4.628;2022-12-20T06:51:33;3.70;;;3.30;;
24751;SDS011;27246;52.376;4.628;2022-12-20T06:56:35;3.97;;;3.58;;
24751;SDS011;27246;52.376;4.628;2022-12-20T07:01:43;7.03;;;4.30;;
24751;SDS011;27246;52.376;4.628;2022-12-20T07:06:45;6.90;;;4.03;;
24751;SDS011;27246;52.376;4.628;2022-12-20T07:11:47;6.03;;;3.97;;
24751;SDS011;27246;52.376;4.628;2022-12-20T07:16:49;5.03;;;3.53;;
24751;SDS011;27246;52.376;4.628;2022-12-20T07:21:51;6.28;;;3.72;;
24751;SDS011;27246;52.376;4.628;2022-12-20T07:26:53;5.45;;;3.97;;
24751;SDS011;27246;52.376;4.628;2022-12-20T07:31:55;5.13;;;4.63;;
24751;SDS011;27246;52.376;4.628;2022-12-20T07:36:57;5.32;;;3.95;;
24751;SDS011;27246;52.376;4.628;2022-12-20T07:41:59;6.65;;;3.60;;
24751;SDS011;27246;52.376;4.628;2022-12-20T07:47:06;5.68;;;3.03;;
24751;SDS011;27246;52.376;4.628;2022-12-20T07:52:08;5.03;;;3.55;;
24751;SDS011;27246;52.376;4.628;2022-12-20T07:57:14;6.63;;;3.58;;
24751;SDS011;27246;52.376;4.628;2022-12-20T08:02:22;4.03;;;3.10;;
24751;SDS011;27246;52.376;4.628;2022-12-20T08:07:38;5.38;;;3.20;;
24751;SDS011;27246;52.376;4.628;2022-12-20T08:12:41;4.40;;;3.45;;
24751;SDS011;27246;52.376;4.628;2022-12-20T08:17:45;5.35;;;3.10;;
24751;SDS011;27246;52.376;4.628;2022-12-20T08:22:47;4.75;;;3.00;;
24751;SDS011;27246;52.376;4.628;2022-12-20T08:27:48;4.57;;;3.35;;
24751;SDS011;27246;52.376;4.628;2022-12-20T08:32:50;4.75;;;3.17;;
24751;SDS011;27246;52.376;4.628;2022-12-20T08:37:52;4.22;;;3.75;;
24751;SDS011;27246;52.376;4.628;2022-12-20T08:42:54;3.55;;;2.78;;
24751;SDS011;27246;52.376;4.628;2022-12-20T08:47:56;8.43;;;3.38;;
24751;SDS011;27246;52.376;4.628;2022-12-20T08:52:58;3.80;;;3.03;;
24751;SDS011;27246;52.376;4.628;2022-12-20T08:57:59;4.57;;;2.90;;
24751;SDS011;27246;52.376;4.628;2022-12-20T09:03:01;5.70;;;2.67;;
24751;SDS011;27246;52.376;4.628;2022-12-20T09:08:04;5.45;;;3.25;;
24751;SDS011;27246;52.376;4.628;2022-12-20T09:13:06;4.85;;;2.55;;
24751;SDS011;27246;52.376;4.628;2022-12-20T09:18:07;7.45;;;3.17;;
24751;SDS011;27246;52.376;4.628;2022-12-20T09:23:10;6.22;;;2.75;;
24751;SDS011;27246;52.376;4.628;2022-12-20T09:28:12;5.88;;;2.60;;
24751;SDS011;27246;52.376;4.628;2022-12-20T09:33:14;4.80;;;2.78;;
24751;SDS011;27246;52.376;4.628;2022-12-20T09:38:15;6.28;;;2.92;;
24751;SDS011;27246;52.376;4.628;2022-12-20T09:43:17;2.63;;;2.35;;
24751;SDS011;27246;52.376;4.628;2022-12-20T09:48:25;3.97;;;2.63;;
24751;SDS011;27246;52.376;4.628;2022-12-20T10:03:56;6.20;;;3.25;;
24751;SDS011;27246;52.376;4.628;2022-12-20T10:09:00;5.97;;;3.40;;
24751;SDS011;27246;52.376;4.628;2022-12-20T10:25:00;5.55;;;3.00;;
24751;SDS011;27246;52.376;4.628;2022-12-20T10:30:14;4.90;;;3.22;;
24751;SDS011;27246;52.376;4.628;2022-12-20T10:35:23;5.20;;;3.20;;
24751;SDS011;27246;52.376;4.628;2022-12-20T10:40:26;4.28;;;2.85;;
24751;SDS011;27246;52.376;4.628;2022-12-20T10:45:56;3.53;;;2.88;;
24751;SDS011;27246;52.376;4.628;2022-12-20T10:56:18;7.53;;;3.53;;
24751;SDS011;27246;52.376;4.628;2022-12-20T11:01:24;4.07;;;3.25;;
24751;SDS011;27246;52.376;4.628;2022-12-20T11:11:39;5.10;;;3.35;;
24751;SDS011;27246;52.376;4.628;2022-12-20T11:16:58;6.32;;;3.80;;
24751;SDS011;27246;52.376;4.628;2022-12-20T11:22:17;6.30;;;3.60;;
24751;SDS011;27246;52.376;4.628;2022-12-20T11:27:30;5.28;;;4.00;;
24751;SDS011;27246;52.376;4.628;2022-12-20T11:32:37;6.45;;;3.47;;
24751;SDS011;27246;52.376;4.628;2022-12-20T11:49:01;6.13;;;3.75;;
24751;SDS011;27246;52.376;4.628;2022-12-20T11:53:53;6.55;;;4.10;;
24751;SDS011;27246;52.376;4.628;2022-12-20T11:59:11;6.18;;;4.07;;
24751;SDS011;27246;52.376;4.628;2022-12-20T12:04:21;6.68;;;4.03;;
24751;SDS011;27246;52.376;4.628;2022-12-20T12:09:37;6.25;;;4.18;;
24751;SDS011;27246;52.376;4.628;2022-12-20T12:14:50;6.53;;;4.13;;
24751;SDS011;27246;52.376;4.628;2022-12-20T12:19:56;7.95;;;4.25;;
24751;SDS011;27246;52.376;4.628;2022-12-20T12:25:12;5.15;;;4.40;;
24751;SDS011;27246;52.376;4.628;2022-12-20T12:30:18;4.30;;;3.90;;
24751;SDS011;27246;52.376;4.628;2022-12-20T12:35:44;5.53;;;5.03;;
24751;SDS011;27246;52.376;4.628;2022-12-20T12:46:07;5.25;;;4.70;;
24751;SDS011;27246;52.376;4.628;2022-12-20T12:51:16;5.03;;;4.53;;
24751;SDS011;27246;52.376;4.628;2022-12-20T13:12:54;5.32;;;4.82;;
24751;SDS011;27246;52.376;4.628;2022-12-20T13:17:58;5.72;;;4.60;;
24751;SDS011;27246;52.376;4.628;2022-12-20T13:23:22;5.35;;;4.72;;
24751;SDS011;27246;52.376;4.628;2022-12-20T13:33:42;4.82;;;4.38;;
24751;SDS011;27246;52.376;4.628;2022-12-20T13:38:49;7.35;;;4.90;;
24751;SDS011;27246;52.376;4.628;2022-12-20T13:49:20;8.50;;;6.82;;
24751;SDS011;27246;52.376;4.628;2022-12-20T13:54:25;7.65;;;5.90;;
24751;SDS011;27246;52.376;4.628;2022-12-20T13:59:29;9.00;;;6.18;;
24751;SDS011;27246;52.376;4.628;2022-12-20T14:04:42;8.15;;;5.70;;
24751;SDS011;27246;52.376;4.628;2022-12-20T14:09:47;6.80;;;6.10;;
24751;SDS011;27246;52.376;4.628;2022-12-20T14:14:56;8.80;;;6.10;;
24751;SDS011;27246;52.376;4.628;2022-12-20T14:25:10;11.38;;;6.10;;
24751;SDS011;27246;52.376;4.628;2022-12-20T14:30:31;8.15;;;6.35;;
24751;SDS011;27246;52.376;4.628;2022-12-20T14:35:37;9.48;;;6.47;;
24751;SDS011;27246;52.376;4.628;2022-12-20T14:40:47;10.43;;;6.70;;
24751;SDS011;27246;52.376;4.628;2022-12-20T14:51:31;9.63;;;7.47;;
24751;SDS011;27246;52.376;4.628;2022-12-20T14:56:32;10.40;;;7.90;;
24751;SDS011;27246;52.376;4.628;2022-12-20T15:01:34;15.15;;;8.65;;
24751;SDS011;27246;52.376;4.628;2022-12-20T15:06:44;10.55;;;9.07;;
24751;SDS011;27246;52.376;4.628;2022-12-20T15:11:46;12.43;;;9.55;;
24751;SDS011;27246;52.376;4.628;2022-12-20T15:16:48;11.68;;;9.05;;
24751;SDS011;27246;52.376;4.628;2022-12-20T15:21:51;13.90;;;10.45;;
24751;SDS011;27246;52.376;4.628;2022-12-20T15:26:53;12.43;;;9.98;;
24751;SDS011;27246;52.376;4.628;2022-12-20T15:37:30;14.20;;;10.82;;
24751;SDS011;27246;52.376;4.628;2022-12-20T15:42:32;16.60;;;14.70;;
24751;SDS011;27246;52.376;4.628;2022-12-20T15:47:33;13.65;;;12.25;;
24751;SDS011;27246;52.376;4.628;2022-12-20T15:52:35;15.15;;;12.35;;
24751;SDS011;27246;52.376;4.628;2022-12-20T15:57:37;12.75;;;11.48;;
24751;SDS011;27246;52.376;4.628;2022-12-20T16:02:38;13.80;;;11.57;;
24751;SDS011;27246;52.376;4.628;2022-12-20T16:07:40;17.27;;;13.05;;
24751;SDS011;27246;52.376;4.628;2022-12-20T16:12:42;13.45;;;11.73;;
24751;SDS011;27246;52.376;4.628;2022-12-20T16:17:44;15.43;;;10.25;;
24751;SDS011;27246;52.376;4.628;2022-12-20T16:22:46;18.92;;;12.52;;
24751;SDS011;27246;52.376;4.628;2022-12-20T16:27:48;14.23;;;11.05;;
24751;SDS011;27246;52.376;4.628;2022-12-20T16:32:50;16.85;;;10.20;;
24751;SDS011;27246;52.376;4.628;2022-12-20T16:37:52;15.98;;;10.18;;
24751;SDS011;27246;52.376;4.628;2022-12-20T16:42:56;19.52;;;11.30;;
24751;SDS011;27246;52.376;4.628;2022-12-20T16:47:58;14.02;;;11.45;;
24751;SDS011;27246;52.376;4.628;2022-12-20T16:53:00;17.10;;;11.40;;
24751;SDS011;27246;52.376;4.628;2022-12-20T16:58:02;19.48;;;10.75;;
24751;SDS011;27246;52.376;4.628;2022-12-20T17:03:03;14.35;;;10.52;;
24751;SDS011;27246;52.376;4.628;2022-12-20T17:08:07;14.63;;;10.60;;
24751;SDS011;27246;52.376;4.628;2022-12-20T17:13:27;11.63;;;8.80;;
24751;SDS011;27246;52.376;4.628;2022-12-20T17:18:29;10.95;;;8.73;;
24751;SDS011;27246;52.376;4.628;2022-12-20T17:23:31;13.98;;;8.60;;
24751;SDS011;27246;52.376;4.628;2022-12-20T17:28:44;12.57;;;8.65;;
24751;SDS011;27246;52.376;4.628;2022-12-20T17:33:46;16.33;;;9.85;;
24751;SDS011;27246;52.376;4.628;2022-12-20T17:38:48;14.10;;;9.05;;
24751;SDS011;27246;52.376;4.628;2022-12-20T17:43:50;15.00;;;9.57;;
24751;SDS011;27246;52.376;4.628;2022-12-20T17:48:53;15.93;;;9.80;;
24751;SDS011;27246;52.376;4.628;2022-12-20T17:53:58;14.48;;;9.20;;
24751;SDS011;27246;52.376;4.628;2022-12-20T17:59:02;14.48;;;9.27;;
24751;SDS011;27246;52.376;4.628;2022-12-20T18:04:08;12.68;;;9.63;;
24751;SDS011;27246;52.376;4.628;2022-12-20T18:09:15;15.10;;;9.57;;
24751;SDS011;27246;52.376;4.628;2022-12-20T18:14:19;18.17;;;9.88;;
24751;SDS011;27246;52.376;4.628;2022-12-20T18:19:21;16.30;;;9.30;;
24751;SDS011;27246;52.376;4.628;2022-12-20T18:24:23;16.67;;;9.98;;
24751;SDS011;27246;52.376;4.628;2022-12-20T18:29:24;14.05;;;9.32;;
24751;SDS011;27246;52.376;4.628;2022-12-20T18:34:26;13.90;;;8.07;;
24751;SDS011;27246;52.376;4.628;2022-12-20T18:39:28;16.25;;;8.73;;
24751;SDS011;27246;52.376;4.628;2022-12-20T18:44:29;12.35;;;8.07;;
24751;SDS011;27246;52.376;4.628;2022-12-20T18:49:36;11.27;;;7.47;;
24751;SDS011;27246;52.376;4.628;2022-12-20T18:54:38;12.80;;;7.75;;
24751;SDS011;27246;52.376;4.628;2022-12-20T18:59:39;12.48;;;8.05;;
24751;SDS011;27246;52.376;4.628;2022-12-20T19:04:41;15.55;;;8.93;;
24751;SDS011;27246;52.376;4.628;2022-12-20T19:09:43;15.25;;;9.38;;
24751;SDS011;27246;52.376;4.628;2022-12-20T19:14:45;12.77;;;7.78;;
24751;SDS011;27246;52.376;4.628;2022-12-20T19:19:47;14.07;;;7.90;;
24751;SDS011;27246;52.376;4.628;2022-12-20T19:24:50;12.02;;;8.10;;
24751;SDS011;27246;52.376;4.628;2022-12-20T19:29:53;16.23;;;7.85;;
24751;SDS011;27246;52.376;4.628;2022-12-20T19:34:54;15.65;;;8.02;;
24751;SDS011;27246;52.376;4.628;2022-12-20T19:39:56;17.08;;;9.73;;
24751;SDS011;27246;52.376;4.628;2022-12-20T19:45:00;17.70;;;8.73;;
24751;SDS011;27246;52.376;4.628;2022-12-20T19:50:02;17.17;;;8.77;;
24751;SDS011;27246;52.376;4.628;2022-12-20T19:55:08;10.23;;;6.90;;
24751;SDS011;27246;52.376;4.628;2022-12-20T20:00:13;12.75;;;7.00;;
24751;SDS011;27246;52.376;4.628;2022-12-20T20:05:15;15.13;;;6.63;;
24751;SDS011;27246;52.376;4.628;2022-12-20T20:10:17;9.05;;;6.15;;
24751;SDS011;27246;52.376;4.628;2022-12-20T20:15:18;16.17;;;7.28;;
24751;SDS011;27246;52.376;4.628;2022-12-20T20:20:20;11.82;;;6.85;;
24751;SDS011;27246;52.376;4.628;2022-12-20T20:25:22;12.13;;;6.50;;
24751;SDS011;27246;52.376;4.628;2022-12-20T20:30:24;15.40;;;8.50;;
24751;SDS011;27246;52.376;4.628;2022-12-20T20:35:26;17.92;;;8.23;;
24751;SDS011;27246;52.376;4.628;2022-12-20T20:40:27;10.50;;;5.88;;
24751;SDS011;27246;52.376;4.628;2022-12-20T20:45:29;14.18;;;5.97;;
24751;SDS011;27246;52.376;4.628;2022-12-20T20:50:31;15.43;;;5.38;;
24751;SDS011;27246;52.376;4.628;2022-12-20T20:55:33;13.27;;;6.38;;
24751;SDS011;27246;52.376;4.628;2022-12-20T21:00:37;14.73;;;5.55;;
24751;SDS011;27246;52.376;4.628;2022-12-20T21:05:39;13.25;;;5.90;;
24751;SDS011;27246;52.376;4.628;2022-12-20T21:11:04;14.90;;;6.15;;
24751;SDS011;27246;52.376;4.628;2022-12-20T21:21:11;13.50;;;6.10;;
24751;SDS011;27246;52.376;4.628;2022-12-20T21:26:14;10.85;;;6.00;;
24751;SDS011;27246;52.376;4.628;2022-12-20T21:31:17;10.35;;;5.55;;
24751;SDS011;27246;52.376;4.628;2022-12-20T21:36:20;12.63;;;6.22;;
24751;SDS011;27246;52.376;4.628;2022-12-20T21:41:22;16.35;;;6.95;;
24751;SDS011;27246;52.376;4.628;2022-12-20T21:46:27;20.60;;;7.82;;
24751;SDS011;27246;52.376;4.628;2022-12-20T21:51:29;14.90;;;7.47;;
24751;SDS011;27246;52.376;4.628;2022-12-20T21:56:32;16.73;;;7.32;;
24751;SDS011;27246;52.376;4.628;2022-12-20T22:01:35;14.38;;;6.35;;
24751;SDS011;27246;52.376;4.628;2022-12-20T22:06:38;10.52;;;5.40;;
24751;SDS011;27246;52.376;4.628;2022-12-20T22:11:40;12.73;;;6.45;;
24751;SDS011;27246;52.376;4.628;2022-12-20T22:16:42;13.77;;;7.57;;
24751;SDS011;27246;52.376;4.628;2022-12-20T22:21:44;16.83;;;6.40;;
24751;SDS011;27246;52.376;4.628;2022-12-20T22:26:46;16.90;;;5.78;;
24751;SDS011;27246;52.376;4.628;2022-12-20T22:31:48;10.60;;;5.35;;
24751;SDS011;27246;52.376;4.628;2022-12-20T22:36:50;10.70;;;4.18;;
24751;SDS011;27246;52.376;4.628;2022-12-20T22:41:52;8.93;;;4.63;;
24751;SDS011;27246;52.376;4.628;2022-12-20T22:46:54;13.43;;;4.10;;
24751;SDS011;27246;52.376;4.628;2022-12-20T22:51:55;11.07;;;3.63;;
24751;SDS011;27246;52.376;4.628;2022-12-20T22:57:08;9.35;;;4.18;;
24751;SDS011;27246;52.376;4.628;2022-12-20T23:02:12;8.63;;;3.85;;
24751;SDS011;27246;52.376;4.628;2022-12-20T23:07:14;8.98;;;4.40;;
24751;SDS011;27246;52.376;4.628;2022-12-20T23:12:15;10.52;;;4.88;;
24751;SDS011;27246;52.376;4.628;2022-12-20T23:17:36;10.20;;;4.50;;
24751;SDS011;27246;52.376;4.628;2022-12-20T23:22:37;9.73;;;4.05;;
24751;SDS011;27246;52.376;4.628;2022-12-20T23:27:40;11.80;;;4.32;;
24751;SDS011;27246;52.376;4.628;2022-12-20T23:32:43;8.45;;;3.20;;
24751;SDS011;27246;52.376;4.628;2022-12-20T23:37:45;10.98;;;4.35;;
24751;SDS011;27246;52.376;4.628;2022-12-20T23:42:48;9.50;;;4.78;;
24751;SDS011;27246;52.376;4.628;2022-12-20T23:47:53;10.73;;;3.53;;
24751;SDS011;27246;52.376;4.628;2022-12-20T23:52:54;13.45;;;4.97;;
24751;SDS011;27246;52.376;4.628;2022-12-20T23:57:56;9.30;;;3.42;;
